Time,TemperatureF,DewpointF,PressureIn,WindDirection,WindDirectionDegrees,WindSpeedMPH,WindSpeedGustMPH,Humidity,HourlyPrecipIn,Conditions,Clouds,dailyrainin,SoftwareType,DateUTC
2013-03-12 00:04:00,53.2,47.3,29.82,SE,133,1.0,14.0,80,0.00,,,0.01,meteohub,2013-03-12 04:04:00,
2013-03-12 00:18:00,53.2,46.9,29.81,NNW,327,2.0,11.0,79,0.00,,,0.00,meteohub,2013-03-12 04:18:00,
2013-03-12 00:21:00,53.4,47.1,29.81,East,101,2.0,11.0,79,0.00,,,0.00,meteohub,2013-03-12 04:21:00,
2013-03-12 00:28:00,53.4,47.1,29.81,NNW,338,2.0,11.0,79,0.00,,,0.00,meteohub,2013-03-12 04:28:00,
2013-03-12 00:34:00,53.4,47.1,29.80,NNE,29,2.0,11.0,79,0.00,,,0.00,meteohub,2013-03-12 04:34:00,
2013-03-12 00:45:00,53.6,47.3,29.80,WSW,241,4.0,13.0,79,0.00,,,0.00,meteohub,2013-03-12 04:45:00,
2013-03-12 00:51:00,53.6,47.3,29.79,ENE,65,3.0,9.0,79,0.00,,,0.00,meteohub,2013-03-12 04:51:00,
2013-03-12 00:57:00,53.6,47.3,29.79,NNW,346,3.0,9.0,79,0.00,,,0.00,meteohub,2013-03-12 04:57:00,
2013-03-12 01:14:00,54.1,47.5,29.78,NNE,28,4.0,9.0,78,0.00,,,0.00,meteohub,2013-03-12 05:14:00,
2013-03-12 01:21:00,54.3,47.7,29.78,SSW,204,3.0,9.0,78,0.00,,,0.00,meteohub,2013-03-12 05:21:00,
2013-03-12 01:30:00,54.5,47.5,29.78,NE,34,4.0,10.0,77,0.00,,,0.00,meteohub,2013-03-12 05:30:00,
2013-03-12 01:36:00,54.9,47.8,29.78,SE,126,2.0,14.0,77,0.00,,,0.00,meteohub,2013-03-12 05:36:00,
2013-03-12 01:49:00,55.2,47.8,29.78,East,80,5.0,14.0,76,0.00,,,0.00,meteohub,2013-03-12 05:49:00,
2013-03-12 01:57:00,55.6,48.2,29.77,ESE,111,4.0,10.0,76,0.00,,,0.00,meteohub,2013-03-12 05:57:00,
2013-03-12 02:02:00,55.6,48.2,29.76,SSE,164,5.0,10.0,76,0.00,,,0.00,meteohub,2013-03-12 06:02:00,
2013-03-12 02:09:00,55.4,48.0,29.76,NE,40,4.0,10.0,76,0.00,,,0.00,meteohub,2013-03-12 06:09:00,
2013-03-12 02:17:00,55.6,48.2,29.77,East,86,2.0,10.0,76,0.00,,,0.00,meteohub,2013-03-12 06:17:00,
2013-03-12 02:22:00,55.6,48.2,29.76,East,91,5.0,9.0,76,0.00,,,0.00,meteohub,2013-03-12 06:22:00,
2013-03-12 02:37:00,55.6,48.6,29.76,WSW,256,3.0,10.0,77,0.00,,,0.00,meteohub,2013-03-12 06:37:00,
2013-03-12 02:45:00,55.6,48.9,29.75,ENE,70,2.0,10.0,78,0.00,,,0.00,meteohub,2013-03-12 06:45:00,
2013-03-12 02:51:00,55.6,48.9,29.75,SE,140,5.0,10.0,78,0.00,,,0.00,meteohub,2013-03-12 06:51:00,
2013-03-12 03:02:00,55.9,49.1,29.75,South,179,3.0,11.0,78,0.00,,,0.00,meteohub,2013-03-12 07:02:00,
2013-03-12 03:12:00,56.5,49.3,29.75,ESE,117,2.0,11.0,77,0.00,,,0.00,meteohub,2013-03-12 07:12:00,
2013-03-12 03:18:00,56.7,49.1,29.75,East,100,3.0,11.0,76,0.00,,,0.00,meteohub,2013-03-12 07:18:00,
2013-03-12 03:27:00,56.7,49.1,29.75,SW,220,5.0,11.0,76,0.00,,,0.00,meteohub,2013-03-12 07:27:00,
2013-03-12 03:37:00,56.8,48.9,29.75,South,191,2.0,10.0,75,0.00,,,0.00,meteohub,2013-03-12 07:37:00,
2013-03-12 03:40:00,56.8,48.9,29.75,SSE,167,3.0,15.0,75,0.00,,,0.00,meteohub,2013-03-12 07:40:00,
2013-03-12 03:54:00,56.8,49.3,29.74,SSE,149,4.0,15.0,76,0.00,,,0.00,meteohub,2013-03-12 07:54:00,
2013-03-12 04:01:00,56.8,49.3,29.74,SE,129,6.0,10.0,76,0.00,,,0.00,meteohub,2013-03-12 08:01:00,
2013-03-12 04:11:00,56.8,49.6,29.74,SE,135,1.0,11.0,77,0.00,,,0.00,meteohub,2013-03-12 08:11:00,
2013-03-12 04:17:00,56.7,49.5,29.74,ENE,57,5.0,11.0,77,0.00,,,0.00,meteohub,2013-03-12 08:17:00,
2013-03-12 04:40:00,56.7,49.8,29.73,South,183,2.0,12.0,78,0.00,,,0.00,meteohub,2013-03-12 08:40:00,
2013-03-12 04:46:00,56.7,49.8,29.73,NW,307,4.0,12.0,78,0.00,,,0.00,meteohub,2013-03-12 08:46:00,
2013-03-12 04:52:00,56.8,50.0,29.73,SE,125,3.0,10.0,78,0.00,,,0.00,meteohub,2013-03-12 08:52:00,
2013-03-12 05:02:00,56.7,49.8,29.72,East,101,5.0,9.0,78,0.00,,,0.00,meteohub,2013-03-12 09:02:00,
2013-03-12 05:09:00,56.7,50.2,29.72,SE,144,6.0,7.0,79,0.00,,,0.00,meteohub,2013-03-12 09:09:00,
2013-03-12 05:15:00,56.5,50.0,29.72,SSE,165,3.0,10.0,79,0.00,,,0.00,meteohub,2013-03-12 09:15:00,
2013-03-12 05:27:00,56.7,50.5,29.73,NW,312,2.0,11.0,80,0.00,,,0.00,meteohub,2013-03-12 09:27:00,
2013-03-12 05:32:00,55.6,50.9,29.73,WNW,298,5.0,7.0,84,0.00,,,0.00,meteohub,2013-03-12 09:32:00,
2013-03-12 05:41:00,53.4,50.5,29.75,WNW,296,2.0,8.0,90,0.02,,,0.02,meteohub,2013-03-12 09:41:00,
2013-03-12 05:51:00,53.1,50.5,29.75,North,355,0.0,8.0,91,0.02,,,0.02,meteohub,2013-03-12 09:51:00,
2013-03-12 05:57:00,52.9,50.5,29.75,WNW,303,2.0,4.0,92,0.03,,,0.03,meteohub,2013-03-12 09:57:00,
2013-03-12 06:49:00,47.5,45.3,29.78,NNW,334,3.0,5.0,92,0.09,,,0.11,meteohub,2013-03-12 10:49:00,
2013-03-12 06:56:00,46.9,44.8,29.78,North,5,1.0,4.0,92,0.09,,,0.12,meteohub,2013-03-12 10:56:00,
2013-03-12 07:02:00,46.6,44.4,29.79,North,355,0.0,4.0,92,0.10,,,0.13,meteohub,2013-03-12 11:02:00,
2013-03-12 07:09:00,46.2,44.2,29.79,NNW,332,2.0,6.0,93,0.09,,,0.13,meteohub,2013-03-12 11:09:00,
2013-03-12 07:15:00,46.0,43.9,29.78,NNE,17,0.0,5.0,92,0.09,,,0.14,meteohub,2013-03-12 11:15:00,
2013-03-12 07:22:00,45.9,43.9,29.78,NE,42,0.0,5.0,93,0.11,,,0.15,meteohub,2013-03-12 11:22:00,
2013-03-12 07:27:00,45.7,43.7,29.78,NNW,331,1.0,5.0,93,0.11,,,0.18,meteohub,2013-03-12 11:27:00,
2013-03-12 07:35:00,45.3,43.3,29.80,NNW,341,0.0,5.0,93,0.11,,,0.19,meteohub,2013-03-12 11:35:00,
2013-03-12 07:41:00,45.1,43.2,29.80,NNW,338,0.0,4.0,93,0.09,,,0.19,meteohub,2013-03-12 11:41:00,
2013-03-12 07:47:00,45.1,43.2,29.80,NNE,19,0.0,3.0,93,0.08,,,0.19,meteohub,2013-03-12 11:47:00,
2013-03-12 07:54:00,45.1,43.2,29.81,NNE,19,0.0,3.0,93,0.07,,,0.19,meteohub,2013-03-12 11:54:00,
2013-03-12 08:01:00,45.0,43.0,29.80,NNE,19,0.0,1.0,93,0.08,,,0.21,meteohub,2013-03-12 12:01:00,
2013-03-12 08:07:00,45.0,43.0,29.80,NNE,19,0.0,2.0,93,0.09,,,0.22,meteohub,2013-03-12 12:07:00,
2013-03-12 08:13:00,45.0,43.0,29.81,NNE,19,0.0,2.0,93,0.10,,,0.23,meteohub,2013-03-12 12:13:00,
2013-03-12 08:19:00,44.8,42.8,29.81,NNE,19,0.0,2.0,93,0.10,,,0.24,meteohub,2013-03-12 12:19:00,
2013-03-12 08:25:00,44.8,42.8,29.81,NNE,19,0.0,1.0,93,0.06,,,0.24,meteohub,2013-03-12 12:25:00,
2013-03-12 08:31:00,44.6,42.6,29.81,NNE,19,0.0,1.0,93,0.06,,,0.25,meteohub,2013-03-12 12:31:00,
2013-03-12 08:37:00,44.6,42.6,29.81,NNW,335,1.0,1.0,93,0.06,,,0.25,meteohub,2013-03-12 12:37:00,
2013-03-12 08:43:00,44.2,42.1,29.81,NW,309,2.0,2.0,92,0.06,,,0.25,meteohub,2013-03-12 12:43:00,
2013-03-12 08:50:00,44.2,41.7,29.81,WNW,302,0.0,4.0,91,0.07,,,0.26,meteohub,2013-03-12 12:50:00,
2013-03-12 08:56:00,44.2,41.7,29.81,NW,324,0.0,5.0,91,0.07,,,0.27,meteohub,2013-03-12 12:56:00,
2013-03-12 09:02:00,44.2,42.1,29.81,NNW,334,0.0,3.0,92,0.06,,,0.27,meteohub,2013-03-12 13:02:00,
2013-03-12 09:07:00,44.2,41.7,29.81,NNW,342,1.0,2.0,91,0.05,,,0.27,meteohub,2013-03-12 13:07:00,
2013-03-12 09:14:00,44.2,42.1,29.82,NNW,329,1.0,3.0,92,0.04,,,0.27,meteohub,2013-03-12 13:14:00,
2013-03-12 09:20:00,44.2,41.7,29.82,NNW,327,0.0,3.0,91,0.03,,,0.27,meteohub,2013-03-12 13:20:00,
2013-03-12 09:27:00,44.1,41.9,29.82,NNW,327,0.0,3.0,92,0.02,,,0.27,meteohub,2013-03-12 13:27:00,
2013-03-12 09:32:00,44.1,41.9,29.81,NNW,328,0.0,3.0,92,0.02,,,0.27,meteohub,2013-03-12 13:32:00,
2013-03-12 09:37:00,44.1,41.9,29.82,NNW,328,1.0,2.0,92,0.02,,,0.27,meteohub,2013-03-12 13:37:00,
2013-03-12 09:42:00,44.1,41.5,29.82,NNW,339,0.0,4.0,91,0.01,,,0.27,meteohub,2013-03-12 13:42:00,
2013-03-12 09:47:00,44.2,42.1,29.82,NW,315,1.0,4.0,92,0.01,,,0.27,meteohub,2013-03-12 13:47:00,
2013-03-12 09:53:00,44.2,42.1,29.82,NNW,327,0.0,4.0,92,0.01,,,0.27,meteohub,2013-03-12 13:53:00,
2013-03-12 09:59:00,44.1,41.5,29.83,NNW,344,1.0,4.0,91,0.00,,,0.27,meteohub,2013-03-12 13:59:00,
2013-03-12 10:05:00,44.1,41.9,29.83,NNW,336,1.0,4.0,92,0.00,,,0.27,meteohub,2013-03-12 14:05:00,
2013-03-12 10:11:00,44.1,41.5,29.83,NNW,330,1.0,4.0,91,0.00,,,0.27,meteohub,2013-03-12 14:11:00,
2013-03-12 10:17:00,44.1,41.4,29.83,NW,325,1.0,3.0,90,0.00,,,0.27,meteohub,2013-03-12 14:17:00,
2013-03-12 10:22:00,44.1,41.5,29.83,NNW,344,0.0,5.0,91,0.00,,,0.27,meteohub,2013-03-12 14:22:00,
2013-03-12 10:27:00,44.1,41.9,29.83,NNW,342,2.0,5.0,92,0.00,,,0.27,meteohub,2013-03-12 14:27:00,
2013-03-12 10:33:00,44.2,42.1,29.83,NW,325,1.0,5.0,92,0.00,,,0.27,meteohub,2013-03-12 14:33:00,
2013-03-12 10:39:00,44.2,42.1,29.83,NNW,330,1.0,3.0,92,0.00,,,0.27,meteohub,2013-03-12 14:39:00,
2013-03-12 10:45:00,44.4,41.9,29.83,NW,311,1.0,3.0,91,0.00,,,0.27,meteohub,2013-03-12 14:45:00,
2013-03-12 10:51:00,44.8,42.1,29.83,NNW,331,0.0,3.0,90,0.00,,,0.27,meteohub,2013-03-12 14:51:00,
2013-03-12 10:57:00,45.0,41.9,29.83,NW,304,1.0,3.0,89,0.00,,,0.27,meteohub,2013-03-12 14:57:00,
2013-03-12 11:02:00,45.1,41.5,29.83,NNW,341,2.0,5.0,87,0.00,,,0.27,meteohub,2013-03-12 15:02:00,
2013-03-12 11:07:00,45.1,41.5,29.83,NNW,335,5.0,5.0,87,0.01,,,0.27,meteohub,2013-03-12 15:07:00,
2013-03-12 11:12:00,45.3,41.0,29.82,NNW,331,6.0,8.0,85,0.01,,,0.28,meteohub,2013-03-12 15:12:00,
2013-03-12 11:19:00,45.9,41.0,29.83,NNW,329,4.0,11.0,83,0.01,,,0.28,meteohub,2013-03-12 15:19:00,
2013-03-12 11:25:00,46.4,40.8,29.83,NW,314,3.0,11.0,81,0.01,,,0.28,meteohub,2013-03-12 15:25:00,
2013-03-12 11:31:00,46.4,40.6,29.83,NW,309,2.0,7.0,80,0.01,,,0.28,meteohub,2013-03-12 15:31:00,
2013-03-12 11:37:00,46.4,39.9,29.83,WNW,302,5.0,7.0,78,0.01,,,0.28,meteohub,2013-03-12 15:37:00,
2013-03-12 11:42:00,46.2,39.7,29.83,NNW,338,2.0,7.0,78,0.01,,,0.28,meteohub,2013-03-12 15:42:00,
2013-03-12 11:49:00,46.2,40.1,29.83,NW,311,1.0,7.0,79,0.01,,,0.28,meteohub,2013-03-12 15:49:00,
2013-03-12 11:55:00,46.2,40.6,29.83,NW,325,2.0,6.0,81,0.01,,,0.28,meteohub,2013-03-12 15:55:00,
2013-03-12 12:01:00,46.2,40.5,29.83,WNW,298,5.0,6.0,80,0.01,,,0.28,meteohub,2013-03-12 16:01:00,
2013-03-12 12:07:00,46.6,40.5,29.83,NNW,333,3.0,6.0,79,0.00,,,0.28,meteohub,2013-03-12 16:07:00,
2013-03-12 12:12:00,46.9,39.4,29.83,NW,309,5.0,7.0,75,0.00,,,0.28,meteohub,2013-03-12 16:12:00,
2013-03-12 12:17:00,46.8,38.5,29.83,NW,308,6.0,9.0,73,0.00,,,0.28,meteohub,2013-03-12 16:17:00,
2013-03-12 12:22:00,46.2,38.7,29.83,WNW,302,4.0,9.0,75,0.00,,,0.28,meteohub,2013-03-12 16:22:00,
2013-03-12 12:29:00,45.9,38.3,29.83,WNW,294,3.0,9.0,75,0.00,,,0.28,meteohub,2013-03-12 16:29:00,
2013-03-12 12:35:00,46.0,38.3,29.84,NW,322,4.0,8.0,74,0.00,,,0.28,meteohub,2013-03-12 16:35:00,
2013-03-12 12:41:00,45.5,37.8,29.84,NW,306,3.0,11.0,74,0.00,,,0.28,meteohub,2013-03-12 16:41:00,
2013-03-12 12:47:00,45.3,38.1,29.84,WNW,301,3.0,11.0,76,0.00,,,0.28,meteohub,2013-03-12 16:47:00,
2013-03-12 12:52:00,45.3,37.6,29.84,NW,313,3.0,9.0,74,0.00,,,0.28,meteohub,2013-03-12 16:52:00,
2013-03-12 12:59:00,45.5,37.8,29.84,WNW,303,2.0,8.0,74,0.00,,,0.28,meteohub,2013-03-12 16:59:00,
2013-03-12 13:05:00,45.7,38.3,29.84,NW,315,4.0,11.0,75,0.00,,,0.28,meteohub,2013-03-12 17:05:00,
2013-03-12 13:11:00,45.7,38.5,29.84,NW,308,4.0,8.0,76,0.00,,,0.28,meteohub,2013-03-12 17:11:00,
2013-03-12 13:17:00,45.7,37.2,29.84,NW,325,5.0,8.0,72,0.00,,,0.28,meteohub,2013-03-12 17:17:00,
2013-03-12 13:22:00,45.7,36.9,29.84,NW,313,3.0,11.0,71,0.00,,,0.28,meteohub,2013-03-12 17:22:00,
2013-03-12 13:27:00,45.7,36.9,29.84,North,350,7.0,11.0,71,0.00,,,0.28,meteohub,2013-03-12 17:27:00,
2013-03-12 13:32:00,45.7,36.9,29.84,WNW,298,5.0,13.0,71,0.00,,,0.28,meteohub,2013-03-12 17:32:00,
2013-03-12 13:37:00,45.5,36.7,29.84,NW,306,5.0,13.0,71,0.00,,,0.28,meteohub,2013-03-12 17:37:00,
2013-03-12 13:42:00,45.3,36.1,29.85,NNW,337,10.0,13.0,70,0.00,,,0.28,meteohub,2013-03-12 17:42:00,
2013-03-12 13:48:00,44.8,35.6,29.85,NNW,344,5.0,12.0,70,0.00,,,0.28,meteohub,2013-03-12 17:48:00,
2013-03-12 13:54:00,44.4,35.6,29.85,WNW,301,4.0,12.0,71,0.00,,,0.28,meteohub,2013-03-12 17:54:00,
2013-03-12 14:00:00,44.6,36.1,29.84,NNW,346,8.0,11.0,72,0.00,,,0.28,meteohub,2013-03-12 18:00:00,
2013-03-12 14:06:00,44.2,36.1,29.84,NW,314,4.0,10.0,73,0.00,,,0.28,meteohub,2013-03-12 18:06:00,
2013-03-12 14:12:00,44.1,35.6,29.85,WNW,302,5.0,10.0,72,0.00,,,0.28,meteohub,2013-03-12 18:12:00,
2013-03-12 14:19:00,43.7,36.0,29.85,NNW,332,4.0,9.0,74,0.00,,,0.28,meteohub,2013-03-12 18:19:00,
2013-03-12 14:25:00,43.9,35.1,29.85,NW,306,4.0,9.0,71,0.00,,,0.28,meteohub,2013-03-12 18:25:00,
2013-03-12 14:31:00,43.5,34.7,29.85,NW,324,3.0,10.0,71,0.00,,,0.28,meteohub,2013-03-12 18:31:00,
2013-03-12 14:37:00,43.2,34.7,29.85,NW,316,8.0,11.0,72,0.00,,,0.28,meteohub,2013-03-12 18:37:00,
2013-03-12 14:43:00,42.8,34.7,29.85,NNW,327,10.0,11.0,73,0.00,,,0.28,meteohub,2013-03-12 18:43:00,
2013-03-12 14:50:00,42.4,34.0,29.86,North,355,9.0,12.0,72,0.00,,,0.28,meteohub,2013-03-12 18:50:00,
2013-03-12 14:56:00,42.4,34.0,29.86,WNW,302,2.0,12.0,72,0.00,,,0.28,meteohub,2013-03-12 18:56:00,
2013-03-12 15:02:00,42.3,33.8,29.86,NW,312,4.0,13.0,72,0.00,,,0.28,meteohub,2013-03-12 19:02:00,
2013-03-12 15:08:00,42.3,34.2,29.86,NW,317,7.0,13.0,73,0.00,,,0.28,meteohub,2013-03-12 19:08:00,
2013-03-12 15:14:00,42.1,34.0,29.86,WNW,299,5.0,13.0,73,0.00,,,0.28,meteohub,2013-03-12 19:14:00,
2013-03-12 15:20:00,41.9,33.6,29.86,NW,323,8.0,11.0,72,0.00,,,0.28,meteohub,2013-03-12 19:20:00,
2013-03-12 15:26:00,41.7,33.4,29.87,NNW,329,4.0,15.0,72,0.00,,,0.28,meteohub,2013-03-12 19:26:00,
2013-03-12 15:32:00,41.5,33.6,29.87,NNW,327,4.0,15.0,73,0.00,,,0.28,meteohub,2013-03-12 19:32:00,
2013-03-12 15:37:00,41.4,33.4,29.87,NW,306,7.0,12.0,73,0.00,,,0.28,meteohub,2013-03-12 19:37:00,
2013-03-12 15:42:00,41.2,33.3,29.87,WNW,299,4.0,11.0,73,0.00,,,0.28,meteohub,2013-03-12 19:42:00,
2013-03-12 15:47:00,41.2,33.4,29.87,WNW,300,2.0,11.0,74,0.00,,,0.28,meteohub,2013-03-12 19:47:00,
2013-03-12 15:54:00,41.4,33.4,29.87,NW,311,4.0,10.0,73,0.00,,,0.28,meteohub,2013-03-12 19:54:00,
2013-03-12 16:00:00,41.5,33.6,29.88,NNW,333,2.0,10.0,73,0.00,,,0.28,meteohub,2013-03-12 20:00:00,
2013-03-12 16:06:00,41.7,32.4,29.88,NNW,329,6.0,12.0,69,0.00,,,0.28,meteohub,2013-03-12 20:06:00,
2013-03-12 16:12:00,41.7,32.7,29.88,NW,308,3.0,12.0,70,0.00,,,0.28,meteohub,2013-03-12 20:12:00,
2013-03-12 16:17:00,42.1,32.7,29.88,WNW,290,6.0,11.0,69,0.00,,,0.28,meteohub,2013-03-12 20:17:00,
2013-03-12 16:22:00,42.3,31.6,29.87,NNW,332,7.0,11.0,66,0.00,,,0.28,meteohub,2013-03-12 20:22:00,
2013-03-12 16:27:00,42.6,32.0,29.87,NNW,331,4.0,16.0,66,0.00,,,0.28,meteohub,2013-03-12 20:27:00,
2013-03-12 16:32:00,43.2,32.5,29.87,NNW,330,9.0,16.0,66,0.00,,,0.28,meteohub,2013-03-12 20:32:00,
2013-03-12 16:38:00,43.3,32.4,29.87,WNW,292,4.0,16.0,65,0.00,,,0.28,meteohub,2013-03-12 20:38:00,
2013-03-12 16:45:00,43.0,32.0,29.87,West,280,3.0,11.0,65,0.00,,,0.28,meteohub,2013-03-12 20:45:00,
2013-03-12 16:51:00,43.3,32.4,29.87,NW,309,7.0,11.0,65,0.00,,,0.28,meteohub,2013-03-12 20:51:00,
2013-03-12 16:57:00,44.4,33.4,29.87,WNW,287,3.0,11.0,65,0.00,,,0.28,meteohub,2013-03-12 20:57:00,
2013-03-12 17:06:00,45.3,32.2,29.87,NW,315,4.0,11.0,60,0.00,,,0.28,meteohub,2013-03-12 21:06:00,
2013-03-12 17:43:00,43.0,30.9,29.89,NW,304,7.0,12.0,62,0.00,,,0.28,meteohub,2013-03-12 21:43:00,
2013-03-12 18:03:00,41.7,30.7,29.90,WSW,245,2.0,14.0,65,0.00,,,0.28,meteohub,2013-03-12 22:03:00,
2013-03-12 18:17:00,41.4,31.3,29.90,NNW,328,4.0,10.0,67,0.00,,,0.28,meteohub,2013-03-12 22:17:00,
2013-03-12 18:37:00,40.8,31.1,29.91,NW,312,3.0,7.0,68,0.00,,,0.28,meteohub,2013-03-12 22:37:00,
2013-03-12 18:52:00,40.5,30.4,29.92,NW,306,5.0,12.0,67,0.00,,,0.28,meteohub,2013-03-12 22:52:00,
2013-03-12 19:02:00,40.1,29.7,29.92,NW,315,5.0,9.0,66,0.00,,,0.28,meteohub,2013-03-12 23:02:00,
2013-03-12 19:13:00,39.9,30.2,29.92,NW,307,2.0,11.0,68,0.00,,,0.28,meteohub,2013-03-12 23:13:00,
2013-03-12 19:29:00,39.7,30.7,29.93,WNW,297,3.0,6.0,70,0.00,,,0.28,meteohub,2013-03-12 23:29:00,
2013-03-12 19:35:00,39.6,30.2,29.93,WNW,296,5.0,7.0,69,0.00,,,0.28,meteohub,2013-03-12 23:35:00,
2013-03-12 19:42:00,39.7,30.4,29.94,NNW,347,7.0,11.0,69,0.00,,,0.28,meteohub,2013-03-12 23:42:00,
2013-03-12 19:48:00,39.6,30.2,29.94,NNE,17,4.0,11.0,69,0.00,,,0.28,meteohub,2013-03-12 23:48:00,
2013-03-12 19:54:00,39.7,30.4,29.94,NNW,327,4.0,11.0,69,0.00,,,0.28,meteohub,2013-03-12 23:54:00,
2013-03-12 20:07:00,39.4,30.4,29.95,North,355,3.0,10.0,70,0.00,,,0.28,meteohub,2013-03-13 00:07:00,
2013-03-12 20:13:00,39.4,30.7,29.95,NW,307,2.0,10.0,71,0.00,,,0.28,meteohub,2013-03-13 00:13:00,
2013-03-12 20:20:00,39.2,30.6,29.96,NW,306,3.0,9.0,71,0.00,,,0.28,meteohub,2013-03-13 00:20:00,
2013-03-12 20:26:00,39.0,30.7,29.96,NNW,336,2.0,7.0,72,0.00,,,0.28,meteohub,2013-03-13 00:26:00,
2013-03-12 20:35:00,39.0,30.4,29.96,NW,310,3.0,7.0,71,0.00,,,0.28,meteohub,2013-03-13 00:35:00,
2013-03-12 20:55:00,38.8,28.8,29.96,NNW,342,3.0,9.0,67,0.00,,,0.28,meteohub,2013-03-13 00:55:00,
2013-03-12 21:02:00,38.8,28.4,29.97,NW,304,4.0,9.0,66,0.00,,,0.28,meteohub,2013-03-13 01:02:00,
2013-03-12 21:08:00,38.8,28.4,29.97,NNW,330,3.0,9.0,66,0.00,,,0.28,meteohub,2013-03-13 01:08:00,
2013-03-12 21:15:00,38.7,27.9,29.97,NNW,342,4.0,11.0,65,0.00,,,0.28,meteohub,2013-03-13 01:15:00,
2013-03-12 21:17:00,38.7,27.5,29.97,NNW,338,5.0,11.0,64,0.00,,,0.28,meteohub,2013-03-13 01:17:00,
2013-03-12 21:22:00,38.7,27.5,29.97,North,355,0.0,11.0,64,0.00,,,0.28,meteohub,2013-03-13 01:22:00,
2013-03-12 21:32:00,38.7,27.9,29.97,NNW,340,1.0,8.0,65,0.00,,,0.28,meteohub,2013-03-13 01:32:00,
2013-03-12 21:37:00,38.7,27.5,29.97,NNW,344,0.0,8.0,64,0.00,,,0.28,meteohub,2013-03-13 01:37:00,
2013-03-12 21:42:00,38.7,28.2,29.98,NW,319,2.0,8.0,66,0.00,,,0.28,meteohub,2013-03-13 01:42:00,
2013-03-12 21:54:00,38.5,28.0,29.98,NW,313,2.0,4.0,66,0.00,,,0.28,meteohub,2013-03-13 01:54:00,
2013-03-12 22:02:00,38.5,28.8,29.98,NNW,334,2.0,6.0,68,0.00,,,0.28,meteohub,2013-03-13 02:02:00,
2013-03-12 22:08:00,38.3,28.2,29.98,NNW,331,1.0,6.0,67,0.00,,,0.28,meteohub,2013-03-13 02:08:00,
2013-03-12 22:18:00,38.5,29.1,29.98,NNW,333,0.0,8.0,69,0.00,,,0.28,meteohub,2013-03-13 02:18:00,
2013-03-12 22:31:00,38.3,27.9,29.99,North,355,3.0,5.0,66,0.00,,,0.28,meteohub,2013-03-13 02:31:00,
2013-03-12 22:45:00,38.3,27.5,29.99,WNW,298,3.0,7.0,65,0.00,,,0.28,meteohub,2013-03-13 02:45:00,
2013-03-12 22:59:00,38.1,26.6,29.99,NNW,340,6.0,6.0,63,0.00,,,0.28,meteohub,2013-03-13 02:59:00,
2013-03-12 23:05:00,38.3,26.8,29.99,NNW,336,5.0,8.0,63,0.00,,,0.28,meteohub,2013-03-13 03:05:00,
2013-03-12 23:24:00,38.1,26.6,30.00,NW,307,7.0,7.0,63,0.00,,,0.28,meteohub,2013-03-13 03:24:00,
2013-03-12 23:38:00,38.1,27.0,30.00,NW,318,3.0,10.0,64,0.00,,,0.28,meteohub,2013-03-13 03:38:00,
2013-03-12 23:47:00,37.9,26.8,30.00,NNW,333,2.0,9.0,64,0.00,,,0.28,meteohub,2013-03-13 03:47:00,
2013-03-12 23:57:00,37.9,26.4,30.00,NW,306,4.0,6.0,63,0.00,,,0.28,meteohub,2013-03-13 03:57:00,